sensor_id;sensor_type;location;lat;lon;timestamp;temperature;humidity
12769;DHT22;6448;48.916;8.990;2022-12-05T00:00:02;10.30;60.80
12769;DHT22;6448;48.916;8.990;2022-12-05T00:01:13;10.00;60.70
12769;DHT22;6448;48.916;8.990;2022-12-05T00:02:15;10.00;60.30
12769;DHT22;6448;48.916;8.990;2022-12-05T00:03:17;10.10;60.20
12769;DHT22;6448;48.916;8.990;2022-12-05T00:04:18;10.00;60.20
12769;DHT22;6448;48.916;8.990;2022-12-05T00:05:20;10.00;60.30
12769;DHT22;6448;48.916;8.990;2022-12-05T00:06:22;10.00;60.30
12769;DHT22;6448;48.916;8.990;2022-12-05T00:07:24;9.90;60.40
12769;DHT22;6448;48.916;8.990;2022-12-05T00:08:26;10.40;60.60
12769;DHT22;6448;48.916;8.990;2022-12-05T00:09:26;10.00;60.40
12769;DHT22;6448;48.916;8.990;2022-12-05T00:10:28;9.90;60.30
12769;DHT22;6448;48.916;8.990;2022-12-05T00:11:31;10.00;60.30
12769;DHT22;6448;48.916;8.990;2022-12-05T00:12:33;10.00;60.50
12769;DHT22;6448;48.916;8.990;2022-12-05T00:13:36;10.10;60.30
12769;DHT22;6448;48.916;8.990;2022-12-05T00:14:39;10.20;60.40
12769;DHT22;6448;48.916;8.990;2022-12-05T00:15:40;10.20;60.40
12769;DHT22;6448;48.916;8.990;2022-12-05T00:16:42;10.00;60.30
12769;DHT22;6448;48.916;8.990;2022-12-05T00:17:43;10.00;60.30
12769;DHT22;6448;48.916;8.990;2022-12-05T00:18:46;10.00;60.30
12769;DHT22;6448;48.916;8.990;2022-12-05T00:19:47;10.00;60.30
12769;DHT22;6448;48.916;8.990;2022-12-05T00:20:49;10.00;60.20
12769;DHT22;6448;48.916;8.990;2022-12-05T00:21:50;10.00;60.10
12769;DHT22;6448;48.916;8.990;2022-12-05T00:22:51;10.00;60.10
12769;DHT22;6448;48.916;8.990;2022-12-05T00:23:54;10.00;60.80
12769;DHT22;6448;48.916;8.990;2022-12-05T00:24:56;10.00;60.00
12769;DHT22;6448;48.916;8.990;2022-12-05T00:26:01;10.00;59.90
12769;DHT22;6448;48.916;8.990;2022-12-05T00:27:03;10.20;60.00
12769;DHT22;6448;48.916;8.990;2022-12-05T00:28:04;10.00;59.90
12769;DHT22;6448;48.916;8.990;2022-12-05T00:29:07;10.30;60.00
12769;DHT22;6448;48.916;8.990;2022-12-05T00:30:08;9.90;59.90
12769;DHT22;6448;48.916;8.990;2022-12-05T00:31:14;9.90;59.80
12769;DHT22;6448;48.916;8.990;2022-12-05T00:32:15;9.90;59.70
12769;DHT22;6448;48.916;8.990;2022-12-05T00:33:17;10.00;59.60
12769;DHT22;6448;48.916;8.990;2022-12-05T00:34:18;10.00;59.70
12769;DHT22;6448;48.916;8.990;2022-12-05T00:35:20;10.00;59.70
12769;DHT22;6448;48.916;8.990;2022-12-05T00:36:22;10.00;59.80
12769;DHT22;6448;48.916;8.990;2022-12-05T00:37:24;9.80;59.80
12769;DHT22;6448;48.916;8.990;2022-12-05T00:38:26;9.90;59.80
12769;DHT22;6448;48.916;8.990;2022-12-05T00:39:27;10.10;59.90
12769;DHT22;6448;48.916;8.990;2022-12-05T00:40:33;10.20;60.00
12769;DHT22;6448;48.916;8.990;2022-12-05T00:41:34;9.90;59.90
12769;DHT22;6448;48.916;8.990;2022-12-05T00:42:36;10.00;60.00
12769;DHT22;6448;48.916;8.990;2022-12-05T00:43:38;9.90;59.90
12769;DHT22;6448;48.916;8.990;2022-12-05T00:44:41;9.90;59.90
12769;DHT22;6448;48.916;8.990;2022-12-05T00:45:43;9.90;59.90
12769;DHT22;6448;48.916;8.990;2022-12-05T00:46:44;10.10;60.00
12769;DHT22;6448;48.916;8.990;2022-12-05T00:47:46;9.90;59.90
12769;DHT22;6448;48.916;8.990;2022-12-05T00:48:47;9.90;59.90
12769;DHT22;6448;48.916;8.990;2022-12-05T00:49:48;10.20;60.00
12769;DHT22;6448;48.916;8.990;2022-12-05T00:50:49;9.90;59.60
12769;DHT22;6448;48.916;8.990;2022-12-05T00:51:51;10.30;59.80
12769;DHT22;6448;48.916;8.990;2022-12-05T00:52:52;10.10;59.60
12769;DHT22;6448;48.916;8.990;2022-12-05T00:53:56;9.80;59.50
12769;DHT22;6448;48.916;8.990;2022-12-05T00:54:57;10.20;59.60
12769;DHT22;6448;48.916;8.990;2022-12-05T00:56:01;10.00;59.50
12769;DHT22;6448;48.916;8.990;2022-12-05T00:57:03;9.90;60.20
12769;DHT22;6448;48.916;8.990;2022-12-05T00:58:05;9.90;59.60
12769;DHT22;6448;48.916;8.990;2022-12-05T00:59:06;10.10;59.60
12769;DHT22;6448;48.916;8.990;2022-12-05T01:00:10;9.90;59.60
12769;DHT22;6448;48.916;8.990;2022-12-05T01:01:13;9.90;59.70
12769;DHT22;6448;48.916;8.990;2022-12-05T01:02:15;10.00;59.80
12769;DHT22;6448;48.916;8.990;2022-12-05T01:03:16;9.90;59.70
12769;DHT22;6448;48.916;8.990;2022-12-05T01:04:20;9.90;59.70
12769;DHT22;6448;48.916;8.990;2022-12-05T01:05:21;9.90;59.80
12769;DHT22;6448;48.916;8.990;2022-12-05T01:06:24;10.30;60.00
12769;DHT22;6448;48.916;8.990;2022-12-05T01:07:25;10.00;59.90
12769;DHT22;6448;48.916;8.990;2022-12-05T01:08:27;9.90;59.70
12769;DHT22;6448;48.916;8.990;2022-12-05T01:09:28;10.10;59.80
12769;DHT22;6448;48.916;8.990;2022-12-05T01:10:30;9.90;59.70
12769;DHT22;6448;48.916;8.990;2022-12-05T01:11:31;10.10;59.70
12769;DHT22;6448;48.916;8.990;2022-12-05T01:12:33;9.90;59.70
12769;DHT22;6448;48.916;8.990;2022-12-05T01:13:35;10.20;59.80
12769;DHT22;6448;48.916;8.990;2022-12-05T01:14:37;10.20;59.80
12769;DHT22;6448;48.916;8.990;2022-12-05T01:15:39;9.90;59.60
12769;DHT22;6448;48.916;8.990;2022-12-05T01:16:43;9.90;59.60
12769;DHT22;6448;48.916;8.990;2022-12-05T01:17:44;9.90;59.80
12769;DHT22;6448;48.916;8.990;2022-12-05T01:18:46;9.90;59.70
12769;DHT22;6448;48.916;8.990;2022-12-05T01:19:46;9.90;59.80
12769;DHT22;6448;48.916;8.990;2022-12-05T01:20:49;10.10;59.80
12769;DHT22;6448;48.916;8.990;2022-12-05T01:21:50;10.00;59.80
12769;DHT22;6448;48.916;8.990;2022-12-05T01:22:52;10.20;59.90
12769;DHT22;6448;48.916;8.990;2022-12-05T01:23:53;10.60;60.00
12769;DHT22;6448;48.916;8.990;2022-12-05T01:24:55;9.90;60.50
12769;DHT22;6448;48.916;8.990;2022-12-05T01:25:57;9.90;59.70
12769;DHT22;6448;48.916;8.990;2022-12-05T01:26:59;9.90;59.80
12769;DHT22;6448;48.916;8.990;2022-12-05T01:28:00;10.00;59.80
12769;DHT22;6448;48.916;8.990;2022-12-05T01:29:03;10.30;59.90
12769;DHT22;6448;48.916;8.990;2022-12-05T01:30:05;10.10;59.80
12769;DHT22;6448;48.916;8.990;2022-12-05T01:31:21;9.80;59.80
12769;DHT22;6448;48.916;8.990;2022-12-05T01:32:22;9.90;59.80
12769;DHT22;6448;48.916;8.990;2022-12-05T01:33:24;9.80;59.70
12769;DHT22;6448;48.916;8.990;2022-12-05T01:34:25;10.20;59.90
12769;DHT22;6448;48.916;8.990;2022-12-05T01:35:30;9.80;59.70
12769;DHT22;6448;48.916;8.990;2022-12-05T01:36:31;10.10;59.90
12769;DHT22;6448;48.916;8.990;2022-12-05T01:37:33;10.10;60.00
12769;DHT22;6448;48.916;8.990;2022-12-05T01:38:34;9.90;59.90
12769;DHT22;6448;48.916;8.990;2022-12-05T01:39:36;9.80;59.80
12769;DHT22;6448;48.916;8.990;2022-12-05T01:40:37;9.90;59.80
12769;DHT22;6448;48.916;8.990;2022-12-05T01:41:41;9.80;59.80
12769;DHT22;6448;48.916;8.990;2022-12-05T01:42:42;9.90;59.90
12769;DHT22;6448;48.916;8.990;2022-12-05T01:44:00;10.10;60.00
12769;DHT22;6448;48.916;8.990;2022-12-05T01:45:06;9.80;59.80
12769;DHT22;6448;48.916;8.990;2022-12-05T01:46:12;9.80;59.90
12769;DHT22;6448;48.916;8.990;2022-12-05T01:47:16;10.10;60.00
12769;DHT22;6448;48.916;8.990;2022-12-05T01:48:20;9.80;59.80
12769;DHT22;6448;48.916;8.990;2022-12-05T01:49:25;10.00;59.90
12769;DHT22;6448;48.916;8.990;2022-12-05T01:50:27;9.80;59.80
12769;DHT22;6448;48.916;8.990;2022-12-05T01:51:29;9.80;59.80
12769;DHT22;6448;48.916;8.990;2022-12-05T01:52:33;9.80;59.80
12769;DHT22;6448;48.916;8.990;2022-12-05T01:53:35;9.80;59.80
12769;DHT22;6448;48.916;8.990;2022-12-05T01:54:37;10.00;60.00
12769;DHT22;6448;48.916;8.990;2022-12-05T01:55:38;10.00;60.00
12769;DHT22;6448;48.916;8.990;2022-12-05T01:56:43;9.80;59.80
12769;DHT22;6448;48.916;8.990;2022-12-05T01:57:45;9.80;59.90
12769;DHT22;6448;48.916;8.990;2022-12-05T01:58:48;9.90;60.00
12769;DHT22;6448;48.916;8.990;2022-12-05T01:59:54;9.80;59.90
12769;DHT22;6448;48.916;8.990;2022-12-05T02:00:58;10.10;60.10
12769;DHT22;6448;48.916;8.990;2022-12-05T02:02:00;10.20;60.80
12769;DHT22;6448;48.916;8.990;2022-12-05T02:03:05;9.80;59.90
12769;DHT22;6448;48.916;8.990;2022-12-05T02:04:07;9.90;60.00
12769;DHT22;6448;48.916;8.990;2022-12-05T02:05:14;9.80;59.90
12769;DHT22;6448;48.916;8.990;2022-12-05T02:06:15;9.90;60.00
12769;DHT22;6448;48.916;8.990;2022-12-05T02:07:18;9.50;59.70
12769;DHT22;6448;48.916;8.990;2022-12-05T02:08:19;10.00;59.90
12769;DHT22;6448;48.916;8.990;2022-12-05T02:09:22;10.10;60.00
12769;DHT22;6448;48.916;8.990;2022-12-05T02:10:23;10.00;60.00
12769;DHT22;6448;48.916;8.990;2022-12-05T02:11:29;10.20;60.10
12769;DHT22;6448;48.916;8.990;2022-12-05T02:12:31;9.80;59.80
12769;DHT22;6448;48.916;8.990;2022-12-05T02:13:51;9.90;59.80
12769;DHT22;6448;48.916;8.990;2022-12-05T02:15:16;9.90;59.90
12769;DHT22;6448;48.916;8.990;2022-12-05T02:16:23;9.90;59.90
12769;DHT22;6448;48.916;8.990;2022-12-05T02:17:38;10.20;60.00
12769;DHT22;6448;48.916;8.990;2022-12-05T02:18:51;10.10;60.00
12769;DHT22;6448;48.916;8.990;2022-12-05T02:20:07;9.90;59.80
12769;DHT22;6448;48.916;8.990;2022-12-05T02:26:03;9.90;59.90
12769;DHT22;6448;48.916;8.990;2022-12-05T02:27:38;9.90;59.80
12769;DHT22;6448;48.916;8.990;2022-12-05T02:29:03;9.90;59.90
12769;DHT22;6448;48.916;8.990;2022-12-05T02:30:14;9.90;59.90
12769;DHT22;6448;48.916;8.990;2022-12-05T02:31:19;9.90;59.80
12769;DHT22;6448;48.916;8.990;2022-12-05T02:32:33;9.90;59.80
12769;DHT22;6448;48.916;8.990;2022-12-05T02:33:38;10.10;59.90
12769;DHT22;6448;48.916;8.990;2022-12-05T02:34:49;10.00;59.80
12769;DHT22;6448;48.916;8.990;2022-12-05T02:35:59;9.90;59.70
12769;DHT22;6448;48.916;8.990;2022-12-05T02:37:09;9.90;59.70
12769;DHT22;6448;48.916;8.990;2022-12-05T02:38:18;10.20;59.80
12769;DHT22;6448;48.916;8.990;2022-12-05T02:39:23;9.90;59.60
12769;DHT22;6448;48.916;8.990;2022-12-05T02:40:31;9.70;59.50
12769;DHT22;6448;48.916;8.990;2022-12-05T02:41:38;9.90;59.70
12769;DHT22;6448;48.916;8.990;2022-12-05T02:42:43;9.90;59.70
12769;DHT22;6448;48.916;8.990;2022-12-05T02:43:51;9.90;59.60
12769;DHT22;6448;48.916;8.990;2022-12-05T02:44:55;9.90;59.60
12769;DHT22;6448;48.916;8.990;2022-12-05T02:46:04;9.90;59.60
12769;DHT22;6448;48.916;8.990;2022-12-05T02:47:08;9.90;59.60
12769;DHT22;6448;48.916;8.990;2022-12-05T02:48:11;9.90;60.30
12769;DHT22;6448;48.916;8.990;2022-12-05T02:49:16;10.10;59.80
12769;DHT22;6448;48.916;8.990;2022-12-05T02:50:22;10.10;59.80
12769;DHT22;6448;48.916;8.990;2022-12-05T02:51:28;9.90;59.80
12769;DHT22;6448;48.916;8.990;2022-12-05T02:52:32;10.00;59.80
12769;DHT22;6448;48.916;8.990;2022-12-05T02:53:35;9.90;59.70
12769;DHT22;6448;48.916;8.990;2022-12-05T02:54:41;10.00;59.80
12769;DHT22;6448;48.916;8.990;2022-12-05T02:55:43;9.80;59.70
12769;DHT22;6448;48.916;8.990;2022-12-05T02:56:46;9.80;59.60
12769;DHT22;6448;48.916;8.990;2022-12-05T02:57:53;9.80;59.60
12769;DHT22;6448;48.916;8.990;2022-12-05T02:58:56;9.90;59.70
12769;DHT22;6448;48.916;8.990;2022-12-05T02:59:57;9.80;60.10
12769;DHT22;6448;48.916;8.990;2022-12-05T03:01:00;9.80;59.60
12769;DHT22;6448;48.916;8.990;2022-12-05T03:02:02;10.00;59.80
12769;DHT22;6448;48.916;8.990;2022-12-05T03:03:13;9.80;59.60
12769;DHT22;6448;48.916;8.990;2022-12-05T03:04:15;9.80;59.50
12769;DHT22;6448;48.916;8.990;2022-12-05T03:05:21;9.80;59.50
12769;DHT22;6448;48.916;8.990;2022-12-05T03:06:29;10.00;59.60
12769;DHT22;6448;48.916;8.990;2022-12-05T03:07:33;9.80;59.50
12769;DHT22;6448;48.916;8.990;2022-12-05T03:08:40;9.80;59.40
12769;DHT22;6448;48.916;8.990;2022-12-05T03:09:47;9.80;59.40
12769;DHT22;6448;48.916;8.990;2022-12-05T03:10:50;9.80;59.50
12769;DHT22;6448;48.916;8.990;2022-12-05T03:11:58;10.30;59.70
12769;DHT22;6448;48.916;8.990;2022-12-05T03:13:04;9.80;59.60
12769;DHT22;6448;48.916;8.990;2022-12-05T03:14:13;9.80;59.50
12769;DHT22;6448;48.916;8.990;2022-12-05T03:15:16;10.00;59.60
12769;DHT22;6448;48.916;8.990;2022-12-05T03:16:24;9.80;59.50
12769;DHT22;6448;48.916;8.990;2022-12-05T03:17:32;9.80;59.50
12769;DHT22;6448;48.916;8.990;2022-12-05T03:18:38;9.80;59.50
12769;DHT22;6448;48.916;8.990;2022-12-05T03:19:48;9.80;59.50
12769;DHT22;6448;48.916;8.990;2022-12-05T03:20:56;9.80;59.50
12769;DHT22;6448;48.916;8.990;2022-12-05T03:22:01;9.80;59.50
12769;DHT22;6448;48.916;8.990;2022-12-05T03:23:08;9.80;59.50
12769;DHT22;6448;48.916;8.990;2022-12-05T03:24:12;9.80;59.50
12769;DHT22;6448;48.916;8.990;2022-12-05T03:25:15;9.80;59.50
12769;DHT22;6448;48.916;8.990;2022-12-05T03:26:23;9.70;59.50
12769;DHT22;6448;48.916;8.990;2022-12-05T03:27:34;9.70;59.50
12769;DHT22;6448;48.916;8.990;2022-12-05T03:28:48;9.90;60.30
12769;DHT22;6448;48.916;8.990;2022-12-05T03:29:55;9.80;59.70
12769;DHT22;6448;48.916;8.990;2022-12-05T03:31:00;9.90;59.80
12769;DHT22;6448;48.916;8.990;2022-12-05T03:32:09;9.80;59.70
12769;DHT22;6448;48.916;8.990;2022-12-05T03:33:12;9.80;59.80
12769;DHT22;6448;48.916;8.990;2022-12-05T03:34:19;9.70;59.80
12769;DHT22;6448;48.916;8.990;2022-12-05T03:35:25;9.80;59.80
12769;DHT22;6448;48.916;8.990;2022-12-05T03:36:36;10.00;59.90
12769;DHT22;6448;48.916;8.990;2022-12-05T03:37:44;9.80;59.80
12769;DHT22;6448;48.916;8.990;2022-12-05T03:38:51;9.80;59.80
12769;DHT22;6448;48.916;8.990;2022-12-05T03:40:02;9.40;59.60
12769;DHT22;6448;48.916;8.990;2022-12-05T03:41:08;9.80;59.80
12769;DHT22;6448;48.916;8.990;2022-12-05T03:42:17;9.80;59.80
12769;DHT22;6448;48.916;8.990;2022-12-05T03:43:25;9.90;59.90
12769;DHT22;6448;48.916;8.990;2022-12-05T03:44:32;9.90;60.60
12769;DHT22;6448;48.916;8.990;2022-12-05T03:45:40;9.80;59.80
12769;DHT22;6448;48.916;8.990;2022-12-05T03:46:49;9.80;59.80
12769;DHT22;6448;48.916;8.990;2022-12-05T03:48:00;10.20;60.00
12769;DHT22;6448;48.916;8.990;2022-12-05T03:49:10;10.30;60.00
12769;DHT22;6448;48.916;8.990;2022-12-05T03:50:18;9.80;59.80
12769;DHT22;6448;48.916;8.990;2022-12-05T03:51:21;9.90;59.80
12769;DHT22;6448;48.916;8.990;2022-12-05T03:52:28;9.90;59.80
12769;DHT22;6448;48.916;8.990;2022-12-05T03:53:34;9.90;59.80
12769;DHT22;6448;48.916;8.990;2022-12-05T03:54:40;9.90;59.80
12769;DHT22;6448;48.916;8.990;2022-12-05T03:55:46;9.90;59.90
12769;DHT22;6448;48.916;8.990;2022-12-05T03:56:53;9.90;59.90
12769;DHT22;6448;48.916;8.990;2022-12-05T03:57:58;9.90;59.90
12769;DHT22;6448;48.916;8.990;2022-12-05T03:59:06;9.90;60.00
12769;DHT22;6448;48.916;8.990;2022-12-05T04:00:11;9.90;59.90
12769;DHT22;6448;48.916;8.990;2022-12-05T04:01:17;9.90;59.90
12769;DHT22;6448;48.916;8.990;2022-12-05T04:02:22;10.10;60.00
12769;DHT22;6448;48.916;8.990;2022-12-05T04:03:30;10.20;60.10
12769;DHT22;6448;48.916;8.990;2022-12-05T04:04:45;10.40;60.30
12769;DHT22;6448;48.916;8.990;2022-12-05T04:05:51;10.10;60.10
12769;DHT22;6448;48.916;8.990;2022-12-05T04:06:55;10.00;60.00
12769;DHT22;6448;48.916;8.990;2022-12-05T04:08:04;10.00;60.10
12769;DHT22;6448;48.916;8.990;2022-12-05T04:09:10;10.00;60.00
12769;DHT22;6448;48.916;8.990;2022-12-05T04:10:14;10.00;60.70
12769;DHT22;6448;48.916;8.990;2022-12-05T04:11:20;10.10;60.00
12769;DHT22;6448;48.916;8.990;2022-12-05T04:12:26;10.00;59.90
12769;DHT22;6448;48.916;8.990;2022-12-05T04:13:33;10.00;59.90
12769;DHT22;6448;48.916;8.990;2022-12-05T04:14:39;10.00;59.90
12769;DHT22;6448;48.916;8.990;2022-12-05T04:15:42;9.90;59.90
12769;DHT22;6448;48.916;8.990;2022-12-05T04:17:02;10.40;60.20
12769;DHT22;6448;48.916;8.990;2022-12-05T04:18:06;10.10;60.00
12769;DHT22;6448;48.916;8.990;2022-12-05T04:19:16;10.00;59.90
12769;DHT22;6448;48.916;8.990;2022-12-05T04:20:21;10.00;59.90
12769;DHT22;6448;48.916;8.990;2022-12-05T04:21:46;10.00;60.00
12769;DHT22;6448;48.916;8.990;2022-12-05T04:22:48;10.00;59.90
12769;DHT22;6448;48.916;8.990;2022-12-05T04:23:50;10.00;59.90
12769;DHT22;6448;48.916;8.990;2022-12-05T04:25:09;10.00;60.00
12769;DHT22;6448;48.916;8.990;2022-12-05T04:26:30;10.00;60.00
12769;DHT22;6448;48.916;8.990;2022-12-05T04:27:38;10.20;60.00
12769;DHT22;6448;48.916;8.990;2022-12-05T04:28:47;10.00;60.00
12769;DHT22;6448;48.916;8.990;2022-12-05T04:29:58;10.00;60.00
12769;DHT22;6448;48.916;8.990;2022-12-05T04:31:04;10.00;60.00
12769;DHT22;6448;48.916;8.990;2022-12-05T04:32:09;10.00;60.00
12769;DHT22;6448;48.916;8.990;2022-12-05T04:33:18;10.10;60.00
12769;DHT22;6448;48.916;8.990;2022-12-05T04:34:25;10.00;60.00
12769;DHT22;6448;48.916;8.990;2022-12-05T04:35:33;9.80;59.90
12769;DHT22;6448;48.916;8.990;2022-12-05T04:36:39;10.30;60.20
12769;DHT22;6448;48.916;8.990;2022-12-05T04:37:44;10.30;60.10
12769;DHT22;6448;48.916;8.990;2022-12-05T04:38:51;10.00;60.00
12769;DHT22;6448;48.916;8.990;2022-12-05T04:39:59;10.00;60.00
12769;DHT22;6448;48.916;8.990;2022-12-05T04:41:04;10.10;60.00
12769;DHT22;6448;48.916;8.990;2022-12-05T04:42:09;10.00;59.90
12769;DHT22;6448;48.916;8.990;2022-12-05T04:43:12;10.00;60.00
12769;DHT22;6448;48.916;8.990;2022-12-05T04:44:16;10.20;60.10
12769;DHT22;6448;48.916;8.990;2022-12-05T04:45:23;10.30;60.20
12769;DHT22;6448;48.916;8.990;2022-12-05T04:46:25;10.30;61.00
12769;DHT22;6448;48.916;8.990;2022-12-05T04:47:29;10.50;60.30
12769;DHT22;6448;48.916;8.990;2022-12-05T04:48:33;10.20;60.20
12769;DHT22;6448;48.916;8.990;2022-12-05T04:49:39;10.00;60.10
12769;DHT22;6448;48.916;8.990;2022-12-05T04:50:41;10.10;60.10
12769;DHT22;6448;48.916;8.990;2022-12-05T04:51:48;10.10;60.20
12769;DHT22;6448;48.916;8.990;2022-12-05T04:52:52;10.40;60.30
12769;DHT22;6448;48.916;8.990;2022-12-05T04:53:59;10.10;60.10
12769;DHT22;6448;48.916;8.990;2022-12-05T04:55:06;10.10;60.10
12769;DHT22;6448;48.916;8.990;2022-12-05T04:56:11;10.30;60.30
12769;DHT22;6448;48.916;8.990;2022-12-05T04:57:17;10.00;60.10
12769;DHT22;6448;48.916;8.990;2022-12-05T04:58:21;10.10;60.20
12769;DHT22;6448;48.916;8.990;2022-12-05T04:59:23;10.00;60.20
12769;DHT22;6448;48.916;8.990;2022-12-05T05:00:29;10.10;60.20
12769;DHT22;6448;48.916;8.990;2022-12-05T05:01:34;10.10;60.20
12769;DHT22;6448;48.916;8.990;2022-12-05T05:02:41;10.10;60.30
12769;DHT22;6448;48.916;8.990;2022-12-05T05:03:45;10.10;60.30
12769;DHT22;6448;48.916;8.990;2022-12-05T05:04:51;10.10;60.30
12769;DHT22;6448;48.916;8.990;2022-12-05T05:05:55;10.10;60.20
12769;DHT22;6448;48.916;8.990;2022-12-05T05:06:57;10.10;60.20
12769;DHT22;6448;48.916;8.990;2022-12-05T05:07:58;10.10;60.10
12769;DHT22;6448;48.916;8.990;2022-12-05T05:09:00;10.10;60.10
12769;DHT22;6448;48.916;8.990;2022-12-05T05:10:01;10.30;60.10
12769;DHT22;6448;48.916;8.990;2022-12-05T05:11:08;10.10;60.10
12769;DHT22;6448;48.916;8.990;2022-12-05T05:12:11;10.10;60.20
12769;DHT22;6448;48.916;8.990;2022-12-05T05:13:12;10.10;60.10
12769;DHT22;6448;48.916;8.990;2022-12-05T05:14:14;10.10;60.10
12769;DHT22;6448;48.916;8.990;2022-12-05T05:15:16;10.10;60.10
12769;DHT22;6448;48.916;8.990;2022-12-05T05:16:20;10.10;60.80
12769;DHT22;6448;48.916;8.990;2022-12-05T05:17:21;10.10;60.20
12769;DHT22;6448;48.916;8.990;2022-12-05T05:18:23;10.10;60.10
12769;DHT22;6448;48.916;8.990;2022-12-05T05:19:24;10.00;60.00
12769;DHT22;6448;48.916;8.990;2022-12-05T05:20:27;10.10;60.00
12769;DHT22;6448;48.916;8.990;2022-12-05T05:21:32;10.10;60.00
12769;DHT22;6448;48.916;8.990;2022-12-05T05:22:40;10.10;60.10
12769;DHT22;6448;48.916;8.990;2022-12-05T05:23:41;10.10;60.00
12769;DHT22;6448;48.916;8.990;2022-12-05T05:24:43;10.10;60.10
12769;DHT22;6448;48.916;8.990;2022-12-05T05:25:44;10.10;60.10
12769;DHT22;6448;48.916;8.990;2022-12-05T05:26:46;10.10;60.10
12769;DHT22;6448;48.916;8.990;2022-12-05T05:27:48;10.10;60.10
12769;DHT22;6448;48.916;8.990;2022-12-05T05:28:51;10.10;60.10
12769;DHT22;6448;48.916;8.990;2022-12-05T05:29:52;10.10;60.10
12769;DHT22;6448;48.916;8.990;2022-12-05T05:30:54;10.10;60.80
12769;DHT22;6448;48.916;8.990;2022-12-05T05:31:55;10.10;60.10
12769;DHT22;6448;48.916;8.990;2022-12-05T05:32:58;10.10;60.10
12769;DHT22;6448;48.916;8.990;2022-12-05T05:33:59;10.30;60.30
12769;DHT22;6448;48.916;8.990;2022-12-05T05:35:03;10.20;60.20
12769;DHT22;6448;48.916;8.990;2022-12-05T05:36:08;10.10;60.20
12769;DHT22;6448;48.916;8.990;2022-12-05T05:37:10;10.10;60.10
12769;DHT22;6448;48.916;8.990;2022-12-05T05:38:11;10.10;60.10
12769;DHT22;6448;48.916;8.990;2022-12-05T05:39:14;10.30;60.20
12769;DHT22;6448;48.916;8.990;2022-12-05T05:40:15;10.20;60.20
12769;DHT22;6448;48.916;8.990;2022-12-05T05:41:19;10.10;60.20
12769;DHT22;6448;48.916;8.990;2022-12-05T05:42:20;10.10;60.20
12769;DHT22;6448;48.916;8.990;2022-12-05T05:43:22;10.40;60.40
12769;DHT22;6448;48.916;8.990;2022-12-05T05:44:23;10.10;60.20
12769;DHT22;6448;48.916;8.990;2022-12-05T05:45:24;10.30;60.30
12769;DHT22;6448;48.916;8.990;2022-12-05T05:46:27;10.10;60.20
12769;DHT22;6448;48.916;8.990;2022-12-05T05:47:29;10.10;60.30
12769;DHT22;6448;48.916;8.990;2022-12-05T05:48:31;10.30;60.50
12769;DHT22;6448;48.916;8.990;2022-12-05T05:49:33;10.10;60.30
12769;DHT22;6448;48.916;8.990;2022-12-05T05:50:34;10.10;60.30
12769;DHT22;6448;48.916;8.990;2022-12-05T05:51:37;10.20;60.30
12769;DHT22;6448;48.916;8.990;2022-12-05T05:52:38;10.10;60.30
12769;DHT22;6448;48.916;8.990;2022-12-05T05:53:40;10.10;60.30
12769;DHT22;6448;48.916;8.990;2022-12-05T05:54:41;10.10;60.30
12769;DHT22;6448;48.916;8.990;2022-12-05T05:55:43;10.10;60.30
12769;DHT22;6448;48.916;8.990;2022-12-05T05:56:44;10.30;60.40
12769;DHT22;6448;48.916;8.990;2022-12-05T05:57:46;10.10;60.30
12769;DHT22;6448;48.916;8.990;2022-12-05T05:58:53;10.10;60.30
12769;DHT22;6448;48.916;8.990;2022-12-05T05:59:54;10.40;60.60
12769;DHT22;6448;48.916;8.990;2022-12-05T06:01:02;10.20;60.40
12769;DHT22;6448;48.916;8.990;2022-12-05T06:02:03;10.20;60.50
12769;DHT22;6448;48.916;8.990;2022-12-05T06:03:05;10.20;60.40
12769;DHT22;6448;48.916;8.990;2022-12-05T06:04:07;10.10;60.30
12769;DHT22;6448;48.916;8.990;2022-12-05T06:05:08;10.20;60.30
12769;DHT22;6448;48.916;8.990;2022-12-05T06:06:11;10.20;60.20
12769;DHT22;6448;48.916;8.990;2022-12-05T06:07:14;10.20;60.40
12769;DHT22;6448;48.916;8.990;2022-12-05T06:08:16;10.30;60.40
12769;DHT22;6448;48.916;8.990;2022-12-05T06:09:17;10.20;60.20
12769;DHT22;6448;48.916;8.990;2022-12-05T06:10:20;10.20;60.30
12769;DHT22;6448;48.916;8.990;2022-12-05T06:11:23;10.20;60.30
12769;DHT22;6448;48.916;8.990;2022-12-05T06:12:24;10.20;60.30
12769;DHT22;6448;48.916;8.990;2022-12-05T06:13:26;10.30;60.40
12769;DHT22;6448;48.916;8.990;2022-12-05T06:14:27;10.20;60.20
12769;DHT22;6448;48.916;8.990;2022-12-05T06:15:29;10.20;60.20
12769;DHT22;6448;48.916;8.990;2022-12-05T06:16:31;10.20;60.20
12769;DHT22;6448;48.916;8.990;2022-12-05T06:17:32;10.30;61.00
12769;DHT22;6448;48.916;8.990;2022-12-05T06:18:34;10.20;60.20
12769;DHT22;6448;48.916;8.990;2022-12-05T06:19:35;10.20;60.20
12769;DHT22;6448;48.916;8.990;2022-12-05T06:20:37;10.20;60.10
12769;DHT22;6448;48.916;8.990;2022-12-05T06:21:51;10.20;60.10
12769;DHT22;6448;48.916;8.990;2022-12-05T06:22:55;10.10;60.10
12769;DHT22;6448;48.916;8.990;2022-12-05T06:23:56;10.60;60.30
12769;DHT22;6448;48.916;8.990;2022-12-05T06:24:58;10.20;60.10
12769;DHT22;6448;48.916;8.990;2022-12-05T06:26:00;10.20;60.20
12769;DHT22;6448;48.916;8.990;2022-12-05T06:27:01;10.20;60.20
12769;DHT22;6448;48.916;8.990;2022-12-05T06:28:03;10.20;60.10
12769;DHT22;6448;48.916;8.990;2022-12-05T06:29:04;10.20;60.20
12769;DHT22;6448;48.916;8.990;2022-12-05T06:30:06;10.30;60.20
12769;DHT22;6448;48.916;8.990;2022-12-05T06:31:08;10.20;60.20
12769;DHT22;6448;48.916;8.990;2022-12-05T06:32:10;10.20;60.20
12769;DHT22;6448;48.916;8.990;2022-12-05T06:33:13;10.20;60.10
12769;DHT22;6448;48.916;8.990;2022-12-05T06:34:14;10.60;60.40
12769;DHT22;6448;48.916;8.990;2022-12-05T06:37:07;10.20;60.20
12769;DHT22;6448;48.916;8.990;2022-12-05T06:38:16;10.20;60.20
12769;DHT22;6448;48.916;8.990;2022-12-05T06:39:23;10.50;60.30
12769;DHT22;6448;48.916;8.990;2022-12-05T06:40:34;10.20;60.20
12769;DHT22;6448;48.916;8.990;2022-12-05T06:41:42;10.20;60.20
12769;DHT22;6448;48.916;8.990;2022-12-05T06:44:38;10.20;60.20
12769;DHT22;6448;48.916;8.990;2022-12-05T06:46:22;10.30;60.10
12769;DHT22;6448;48.916;8.990;2022-12-05T06:49:49;10.10;60.20
12769;DHT22;6448;48.916;8.990;2022-12-05T06:55:05;10.20;60.40
12769;DHT22;6448;48.916;8.990;2022-12-05T06:56:10;10.20;60.30
12769;DHT22;6448;48.916;8.990;2022-12-05T06:57:11;10.20;60.40
12769;DHT22;6448;48.916;8.990;2022-12-05T06:58:13;10.20;60.40
12769;DHT22;6448;48.916;8.990;2022-12-05T06:59:14;10.20;60.40
12769;DHT22;6448;48.916;8.990;2022-12-05T07:00:16;10.20;60.40
12769;DHT22;6448;48.916;8.990;2022-12-05T07:01:36;10.30;60.50
12769;DHT22;6448;48.916;8.990;2022-12-05T07:02:41;10.20;60.40
12769;DHT22;6448;48.916;8.990;2022-12-05T07:03:42;10.20;60.40
12769;DHT22;6448;48.916;8.990;2022-12-05T07:04:44;10.20;60.40
12769;DHT22;6448;48.916;8.990;2022-12-05T07:05:45;10.20;60.30
12769;DHT22;6448;48.916;8.990;2022-12-05T07:06:47;10.30;60.40
12769;DHT22;6448;48.916;8.990;2022-12-05T07:07:49;10.20;60.30
12769;DHT22;6448;48.916;8.990;2022-12-05T07:08:50;10.30;60.30
12769;DHT22;6448;48.916;8.990;2022-12-05T07:09:52;10.20;60.30
12769;DHT22;6448;48.916;8.990;2022-12-05T07:10:55;10.30;60.30
12769;DHT22;6448;48.916;8.990;2022-12-05T07:11:56;10.30;60.40